<?xml version="1.0" encoding="utf-8"?>
<gpx xmlns:xsi="http://www.w3.org/2001/XMLSchema-instance" xmlns:xsd="http://www.w3.org/2001/XMLSchema" version="1.1" creator="Shapelink.com" xmlns="http://www.topografix.com/GPX/1/1" xmlns:gpxtpx="http://www.garmin.com/xmlschemas/TrackPointExtension/v1">
  <metadata>
    <name>Gåing 5.99 km, 2012-02-27</name>
    <desc></desc>
    <author><name>Mikael Blom</name></author> 
    <time>2012-02-27T16:11:32Z</time>
  </metadata>
  <trk>
    <name>Gåing 5.99 km, 2012-02-27</name>
    <trkseg>
      <trkpt lat="59.9790173" lon="17.739604">
        <ele>37.6287</ele>
        <time>2012-02-27T16:11:32Z</time>
      </trkpt>
      <trkpt lat="59.9790153" lon="17.7395478">
        <ele>37.6287</ele>
        <time>2012-02-27T16:11:35Z</time>
      </trkpt>
      <trkpt lat="59.9789713" lon="17.7394334">
        <ele>37.1481</ele>
        <time>2012-02-27T16:11:41Z</time>
      </trkpt>
      <trkpt lat="59.9789308" lon="17.7393739">
        <ele>37.6287</ele>
        <time>2012-02-27T16:11:45Z</time>
      </trkpt>
      <trkpt lat="59.9789133" lon="17.7393562">
        <ele>37.6287</ele>
        <time>2012-02-27T16:11:47Z</time>
      </trkpt>
      <trkpt lat="59.978851" lon="17.739341">
        <ele>38.1094</ele>
        <time>2012-02-27T16:11:52Z</time>
      </trkpt>
      <trkpt lat="59.9787913" lon="17.7393585">
        <ele>38.1094</ele>
        <time>2012-02-27T16:11:56Z</time>
      </trkpt>
      <trkpt lat="59.9786715" lon="17.7393798">
        <ele>38.1094</ele>
        <time>2012-02-27T16:12:04Z</time>
      </trkpt>
      <trkpt lat="59.9785735" lon="17.7393925">
        <ele>38.1094</ele>
        <time>2012-02-27T16:12:11Z</time>
      </trkpt>
      <trkpt lat="59.9784906" lon="17.7393647">
        <ele>40.0321</ele>
        <time>2012-02-27T16:12:17Z</time>
      </trkpt>
      <trkpt lat="59.9784564" lon="17.7393552">
        <ele>40.0321</ele>
        <time>2012-02-27T16:12:19Z</time>
      </trkpt>
      <trkpt lat="59.9783554" lon="17.739374">
        <ele>40.9934</ele>
        <time>2012-02-27T16:12:25Z</time>
      </trkpt>
      <trkpt lat="59.9782832" lon="17.7393838">
        <ele>44.358</ele>
        <time>2012-02-27T16:12:30Z</time>
      </trkpt>
      <trkpt lat="59.9782067" lon="17.7393326">
        <ele>43.8773</ele>
        <time>2012-02-27T16:12:35Z</time>
      </trkpt>
      <trkpt lat="59.9781305" lon="17.7392886">
        <ele>45.3192</ele>
        <time>2012-02-27T16:12:40Z</time>
      </trkpt>
      <trkpt lat="59.9781022" lon="17.7392731">
        <ele>45.3192</ele>
        <time>2012-02-27T16:12:42Z</time>
      </trkpt>
      <trkpt lat="59.9780591" lon="17.7392812">
        <ele>44.8386</ele>
        <time>2012-02-27T16:12:45Z</time>
      </trkpt>
      <trkpt lat="59.9779468" lon="17.7392158">
        <ele>43.8773</ele>
        <time>2012-02-27T16:12:52Z</time>
      </trkpt>
      <trkpt lat="59.9779338" lon="17.739188">
        <ele>43.3966</ele>
        <time>2012-02-27T16:12:54Z</time>
      </trkpt>
      <trkpt lat="59.977872" lon="17.7391145">
        <ele>42.4354</ele>
        <time>2012-02-27T16:12:59Z</time>
      </trkpt>
      <trkpt lat="59.9778441" lon="17.739089">
        <ele>41.9547</ele>
        <time>2012-02-27T16:13:01Z</time>
      </trkpt>
      <trkpt lat="59.9777664" lon="17.7390617">
        <ele>40.9934</ele>
        <time>2012-02-27T16:13:06Z</time>
      </trkpt>
      <trkpt lat="59.9777364" lon="17.7390537">
        <ele>40.0321</ele>
        <time>2012-02-27T16:13:08Z</time>
      </trkpt>
      <trkpt lat="59.9776198" lon="17.7390591">
        <ele>37.1481</ele>
        <time>2012-02-27T16:13:15Z</time>
      </trkpt>
      <trkpt lat="59.9775249" lon="17.7390766">
        <ele>36.6675</ele>
        <time>2012-02-27T16:13:21Z</time>
      </trkpt>
      <trkpt lat="59.9774784" lon="17.739086">
        <ele>36.6675</ele>
        <time>2012-02-27T16:13:24Z</time>
      </trkpt>
      <trkpt lat="59.9773819" lon="17.7391378">
        <ele>34.7449</ele>
        <time>2012-02-27T16:13:31Z</time>
      </trkpt>
      <trkpt lat="59.9772909" lon="17.7391694">
        <ele>33.3029</ele>
        <time>2012-02-27T16:13:38Z</time>
      </trkpt>
      <trkpt lat="59.9771886" lon="17.7392606">
        <ele>32.8223</ele>
        <time>2012-02-27T16:13:45Z</time>
      </trkpt>
      <trkpt lat="59.9770835" lon="17.739331">
        <ele>32.3416</ele>
        <time>2012-02-27T16:13:52Z</time>
      </trkpt>
      <trkpt lat="59.9769831" lon="17.7393658">
        <ele>32.3416</ele>
        <time>2012-02-27T16:13:59Z</time>
      </trkpt>
      <trkpt lat="59.9768796" lon="17.7394034">
        <ele>31.8607</ele>
        <time>2012-02-27T16:14:06Z</time>
      </trkpt>
      <trkpt lat="59.9768541" lon="17.7394106">
        <ele>30.8995</ele>
        <time>2012-02-27T16:14:08Z</time>
      </trkpt>
      <trkpt lat="59.9768303" lon="17.7394287">
        <ele>30.4188</ele>
        <time>2012-02-27T16:14:10Z</time>
      </trkpt>
      <trkpt lat="59.9767312" lon="17.7394549">
        <ele>31.8607</ele>
        <time>2012-02-27T16:14:17Z</time>
      </trkpt>
      <trkpt lat="59.9766387" lon="17.7395232">
        <ele>31.3801</ele>
        <time>2012-02-27T16:14:21Z</time>
      </trkpt>
      <trkpt lat="59.9765698" lon="17.7395723">
        <ele>31.3801</ele>
        <time>2012-02-27T16:14:24Z</time>
      </trkpt>
      <trkpt lat="59.9764853" lon="17.7396495">
        <ele>31.3801</ele>
        <time>2012-02-27T16:14:30Z</time>
      </trkpt>
      <trkpt lat="59.9764041" lon="17.7397491">
        <ele>31.3801</ele>
        <time>2012-02-27T16:14:37Z</time>
      </trkpt>
      <trkpt lat="59.9763326" lon="17.7398997">
        <ele>30.8995</ele>
        <time>2012-02-27T16:14:45Z</time>
      </trkpt>
      <trkpt lat="59.9762993" lon="17.7400262">
        <ele>31.3801</ele>
        <time>2012-02-27T16:14:50Z</time>
      </trkpt>
      <trkpt lat="59.9762575" lon="17.7401632">
        <ele>33.3029</ele>
        <time>2012-02-27T16:14:56Z</time>
      </trkpt>
      <trkpt lat="59.9762461" lon="17.7402099">
        <ele>32.8223</ele>
        <time>2012-02-27T16:14:58Z</time>
      </trkpt>
      <trkpt lat="59.9761969" lon="17.7403815">
        <ele>31.3801</ele>
        <time>2012-02-27T16:15:05Z</time>
      </trkpt>
      <trkpt lat="59.976133" lon="17.7405595">
        <ele>29.9381</ele>
        <time>2012-02-27T16:15:13Z</time>
      </trkpt>
      <trkpt lat="59.9760818" lon="17.7407333">
        <ele>29.4575</ele>
        <time>2012-02-27T16:15:20Z</time>
      </trkpt>
      <trkpt lat="59.9760238" lon="17.7409344">
        <ele>28.0155</ele>
        <time>2012-02-27T16:15:28Z</time>
      </trkpt>
      <trkpt lat="59.9759679" lon="17.7411559">
        <ele>28.0155</ele>
        <time>2012-02-27T16:15:37Z</time>
      </trkpt>
      <trkpt lat="59.9759145" lon="17.7413865">
        <ele>28.0155</ele>
        <time>2012-02-27T16:15:46Z</time>
      </trkpt>
      <trkpt lat="59.9758596" lon="17.7416102">
        <ele>26.5736</ele>
        <time>2012-02-27T16:15:55Z</time>
      </trkpt>
      <trkpt lat="59.9757995" lon="17.7418442">
        <ele>25.6123</ele>
        <time>2012-02-27T16:16:04Z</time>
      </trkpt>
      <trkpt lat="59.9757415" lon="17.742061">
        <ele>26.5736</ele>
        <time>2012-02-27T16:16:12Z</time>
      </trkpt>
      <trkpt lat="59.9756695" lon="17.7423112">
        <ele>26.5736</ele>
        <time>2012-02-27T16:16:21Z</time>
      </trkpt>
      <trkpt lat="59.9755861" lon="17.7426588">
        <ele>29.4575</ele>
        <time>2012-02-27T16:16:33Z</time>
      </trkpt>
      <trkpt lat="59.9755534" lon="17.7427961">
        <ele>33.3029</ele>
        <time>2012-02-27T16:16:38Z</time>
      </trkpt>
      <trkpt lat="59.975527" lon="17.742938">
        <ele>36.6675</ele>
        <time>2012-02-27T16:16:43Z</time>
      </trkpt>
      <trkpt lat="59.9754778" lon="17.7431404">
        <ele>38.5901</ele>
        <time>2012-02-27T16:16:50Z</time>
      </trkpt>
      <trkpt lat="59.9754535" lon="17.7432556">
        <ele>38.5901</ele>
        <time>2012-02-27T16:16:54Z</time>
      </trkpt>
      <trkpt lat="59.9754224" lon="17.7434548">
        <ele>41.474</ele>
        <time>2012-02-27T16:17:00Z</time>
      </trkpt>
      <trkpt lat="59.9754119" lon="17.7435073">
        <ele>41.474</ele>
        <time>2012-02-27T16:17:02Z</time>
      </trkpt>
      <trkpt lat="59.9753623" lon="17.7437982">
        <ele>40.9934</ele>
        <time>2012-02-27T16:17:12Z</time>
      </trkpt>
      <trkpt lat="59.9753082" lon="17.7440804">
        <ele>40.5128</ele>
        <time>2012-02-27T16:17:22Z</time>
      </trkpt>
      <trkpt lat="59.9752801" lon="17.7442505">
        <ele>40.5128</ele>
        <time>2012-02-27T16:17:28Z</time>
      </trkpt>
      <trkpt lat="59.9752386" lon="17.7444474">
        <ele>40.5128</ele>
        <time>2012-02-27T16:17:35Z</time>
      </trkpt>
      <trkpt lat="59.9751782" lon="17.7447195">
        <ele>41.474</ele>
        <time>2012-02-27T16:17:44Z</time>
      </trkpt>
      <trkpt lat="59.9751254" lon="17.7449306">
        <ele>42.916</ele>
        <time>2012-02-27T16:17:51Z</time>
      </trkpt>
      <trkpt lat="59.9750529" lon="17.7451375">
        <ele>42.916</ele>
        <time>2012-02-27T16:17:59Z</time>
      </trkpt>
      <trkpt lat="59.9749717" lon="17.7453855">
        <ele>42.916</ele>
        <time>2012-02-27T16:18:08Z</time>
      </trkpt>
      <trkpt lat="59.9748885" lon="17.745583">
        <ele>42.4354</ele>
        <time>2012-02-27T16:18:17Z</time>
      </trkpt>
      <trkpt lat="59.9747972" lon="17.7457907">
        <ele>41.9547</ele>
        <time>2012-02-27T16:18:25Z</time>
      </trkpt>
      <trkpt lat="59.974711" lon="17.745949">
        <ele>40.0321</ele>
        <time>2012-02-27T16:18:33Z</time>
      </trkpt>
      <trkpt lat="59.9746308" lon="17.7460991">
        <ele>38.5901</ele>
        <time>2012-02-27T16:18:41Z</time>
      </trkpt>
      <trkpt lat="59.974562" lon="17.7462002">
        <ele>38.5901</ele>
        <time>2012-02-27T16:18:46Z</time>
      </trkpt>
      <trkpt lat="59.9744458" lon="17.746368">
        <ele>38.5901</ele>
        <time>2012-02-27T16:18:54Z</time>
      </trkpt>
      <trkpt lat="59.9743506" lon="17.7465073">
        <ele>38.5901</ele>
        <time>2012-02-27T16:19:00Z</time>
      </trkpt>
      <trkpt lat="59.974249" lon="17.7466329">
        <ele>40.0321</ele>
        <time>2012-02-27T16:19:07Z</time>
      </trkpt>
      <trkpt lat="59.9741767" lon="17.746734">
        <ele>40.0321</ele>
        <time>2012-02-27T16:19:12Z</time>
      </trkpt>
      <trkpt lat="59.9740917" lon="17.7468437">
        <ele>39.5513</ele>
        <time>2012-02-27T16:19:19Z</time>
      </trkpt>
      <trkpt lat="59.9739678" lon="17.7469954">
        <ele>40.0321</ele>
        <time>2012-02-27T16:19:28Z</time>
      </trkpt>
      <trkpt lat="59.9738475" lon="17.7471334">
        <ele>39.5513</ele>
        <time>2012-02-27T16:19:37Z</time>
      </trkpt>
      <trkpt lat="59.9737666" lon="17.7472173">
        <ele>38.5901</ele>
        <time>2012-02-27T16:19:43Z</time>
      </trkpt>
      <trkpt lat="59.9737239" lon="17.7472808">
        <ele>37.1481</ele>
        <time>2012-02-27T16:19:47Z</time>
      </trkpt>
      <trkpt lat="59.973681" lon="17.7473291">
        <ele>35.7061</ele>
        <time>2012-02-27T16:19:50Z</time>
      </trkpt>
      <trkpt lat="59.9736183" lon="17.7473683">
        <ele>36.1868</ele>
        <time>2012-02-27T16:19:54Z</time>
      </trkpt>
      <trkpt lat="59.9735007" lon="17.7474907">
        <ele>37.6287</ele>
        <time>2012-02-27T16:20:03Z</time>
      </trkpt>
      <trkpt lat="59.9734455" lon="17.7475555">
        <ele>39.0707</ele>
        <time>2012-02-27T16:20:07Z</time>
      </trkpt>
      <trkpt lat="59.9733486" lon="17.74764">
        <ele>40.9934</ele>
        <time>2012-02-27T16:20:13Z</time>
      </trkpt>
      <trkpt lat="59.9732578" lon="17.7477431">
        <ele>41.474</ele>
        <time>2012-02-27T16:20:19Z</time>
      </trkpt>
      <trkpt lat="59.973173" lon="17.7478393">
        <ele>41.9547</ele>
        <time>2012-02-27T16:20:25Z</time>
      </trkpt>
      <trkpt lat="59.9730669" lon="17.7479443">
        <ele>40.0321</ele>
        <time>2012-02-27T16:20:33Z</time>
      </trkpt>
      <trkpt lat="59.9729746" lon="17.7480709">
        <ele>39.0707</ele>
        <time>2012-02-27T16:20:40Z</time>
      </trkpt>
      <trkpt lat="59.9728736" lon="17.7482196">
        <ele>38.5901</ele>
        <time>2012-02-27T16:20:47Z</time>
      </trkpt>
      <trkpt lat="59.9727755" lon="17.7484203">
        <ele>36.6675</ele>
        <time>2012-02-27T16:20:56Z</time>
      </trkpt>
      <trkpt lat="59.9727433" lon="17.7485203">
        <ele>36.6675</ele>
        <time>2012-02-27T16:21:01Z</time>
      </trkpt>
      <trkpt lat="59.972717" lon="17.7485815">
        <ele>36.6675</ele>
        <time>2012-02-27T16:21:04Z</time>
      </trkpt>
      <trkpt lat="59.9726726" lon="17.748712">
        <ele>36.6675</ele>
        <time>2012-02-27T16:21:10Z</time>
      </trkpt>
      <trkpt lat="59.9726216" lon="17.7488692">
        <ele>33.7834</ele>
        <time>2012-02-27T16:21:17Z</time>
      </trkpt>
      <trkpt lat="59.9726014" lon="17.7489508">
        <ele>32.8223</ele>
        <time>2012-02-27T16:21:21Z</time>
      </trkpt>
      <trkpt lat="59.9725598" lon="17.7490668">
        <ele>29.9381</ele>
        <time>2012-02-27T16:21:27Z</time>
      </trkpt>
      <trkpt lat="59.9725156" lon="17.7491831">
        <ele>28.0155</ele>
        <time>2012-02-27T16:21:33Z</time>
      </trkpt>
      <trkpt lat="59.9724941" lon="17.7492248">
        <ele>28.4962</ele>
        <time>2012-02-27T16:21:35Z</time>
      </trkpt>
      <trkpt lat="59.9724351" lon="17.7493488">
        <ele>26.0929</ele>
        <time>2012-02-27T16:21:42Z</time>
      </trkpt>
      <trkpt lat="59.9724203" lon="17.7493964">
        <ele>26.5736</ele>
        <time>2012-02-27T16:21:44Z</time>
      </trkpt>
      <trkpt lat="59.9724046" lon="17.7494482">
        <ele>26.0929</ele>
        <time>2012-02-27T16:21:46Z</time>
      </trkpt>
      <trkpt lat="59.9723517" lon="17.749545">
        <ele>25.1317</ele>
        <time>2012-02-27T16:21:51Z</time>
      </trkpt>
      <trkpt lat="59.9722851" lon="17.7497062">
        <ele>24.1703</ele>
        <time>2012-02-27T16:21:58Z</time>
      </trkpt>
      <trkpt lat="59.9722618" lon="17.7497827">
        <ele>25.1317</ele>
        <time>2012-02-27T16:22:01Z</time>
      </trkpt>
      <trkpt lat="59.9722126" lon="17.7499207">
        <ele>25.1317</ele>
        <time>2012-02-27T16:22:07Z</time>
      </trkpt>
      <trkpt lat="59.972203" lon="17.7499431">
        <ele>25.1317</ele>
        <time>2012-02-27T16:22:08Z</time>
      </trkpt>
      <trkpt lat="59.9721019" lon="17.7501668">
        <ele>27.0543</ele>
        <time>2012-02-27T16:22:16Z</time>
      </trkpt>
      <trkpt lat="59.9720124" lon="17.7503465">
        <ele>27.5349</ele>
        <time>2012-02-27T16:22:22Z</time>
      </trkpt>
      <trkpt lat="59.971992" lon="17.7503791">
        <ele>27.5349</ele>
        <time>2012-02-27T16:22:24Z</time>
      </trkpt>
      <trkpt lat="59.9718889" lon="17.7505604">
        <ele>29.4575</ele>
        <time>2012-02-27T16:22:31Z</time>
      </trkpt>
      <trkpt lat="59.9718485" lon="17.7506355">
        <ele>28.9769</ele>
        <time>2012-02-27T16:22:34Z</time>
      </trkpt>
      <trkpt lat="59.9717684" lon="17.7507749">
        <ele>28.4962</ele>
        <time>2012-02-27T16:22:40Z</time>
      </trkpt>
      <trkpt lat="59.9717579" lon="17.7507928">
        <ele>28.4962</ele>
        <time>2012-02-27T16:22:41Z</time>
      </trkpt>
      <trkpt lat="59.9716725" lon="17.750965">
        <ele>29.9381</ele>
        <time>2012-02-27T16:22:49Z</time>
      </trkpt>
      <trkpt lat="59.9715591" lon="17.7510997">
        <ele>29.9381</ele>
        <time>2012-02-27T16:22:57Z</time>
      </trkpt>
      <trkpt lat="59.9714802" lon="17.7511669">
        <ele>28.9769</ele>
        <time>2012-02-27T16:23:03Z</time>
      </trkpt>
      <trkpt lat="59.9714669" lon="17.7511832">
        <ele>28.9769</ele>
        <time>2012-02-27T16:23:04Z</time>
      </trkpt>
      <trkpt lat="59.9713871" lon="17.7512949">
        <ele>28.0155</ele>
        <time>2012-02-27T16:23:10Z</time>
      </trkpt>
      <trkpt lat="59.9713352" lon="17.7513431">
        <ele>27.5349</ele>
        <time>2012-02-27T16:23:14Z</time>
      </trkpt>
      <trkpt lat="59.9713115" lon="17.7513824">
        <ele>27.0543</ele>
        <time>2012-02-27T16:23:18Z</time>
      </trkpt>
      <trkpt lat="59.9711991" lon="17.7514483">
        <ele>28.4962</ele>
        <time>2012-02-27T16:23:23Z</time>
      </trkpt>
      <trkpt lat="59.9711201" lon="17.7514928">
        <ele>29.4575</ele>
        <time>2012-02-27T16:23:27Z</time>
      </trkpt>
      <trkpt lat="59.971049" lon="17.7515425">
        <ele>30.8995</ele>
        <time>2012-02-27T16:23:31Z</time>
      </trkpt>
      <trkpt lat="59.9709882" lon="17.7516118">
        <ele>32.3416</ele>
        <time>2012-02-27T16:23:35Z</time>
      </trkpt>
      <trkpt lat="59.9709187" lon="17.7517178">
        <ele>31.8607</ele>
        <time>2012-02-27T16:23:41Z</time>
      </trkpt>
      <trkpt lat="59.9708396" lon="17.7518571">
        <ele>32.8223</ele>
        <time>2012-02-27T16:23:48Z</time>
      </trkpt>
      <trkpt lat="59.9707907" lon="17.7519778">
        <ele>31.3801</ele>
        <time>2012-02-27T16:23:54Z</time>
      </trkpt>
      <trkpt lat="59.9707516" lon="17.752117">
        <ele>28.9769</ele>
        <time>2012-02-27T16:24:00Z</time>
      </trkpt>
      <trkpt lat="59.9707231" lon="17.7521491">
        <ele>28.9769</ele>
        <time>2012-02-27T16:24:02Z</time>
      </trkpt>
      <trkpt lat="59.9706962" lon="17.7522125">
        <ele>28.4962</ele>
        <time>2012-02-27T16:24:05Z</time>
      </trkpt>
      <trkpt lat="59.9706527" lon="17.7522971">
        <ele>28.0155</ele>
        <time>2012-02-27T16:24:09Z</time>
      </trkpt>
      <trkpt lat="59.9705967" lon="17.7524015">
        <ele>27.5349</ele>
        <time>2012-02-27T16:24:14Z</time>
      </trkpt>
      <trkpt lat="59.9705887" lon="17.752423">
        <ele>27.5349</ele>
        <time>2012-02-27T16:24:15Z</time>
      </trkpt>
      <trkpt lat="59.9705261" lon="17.7525997">
        <ele>28.0155</ele>
        <time>2012-02-27T16:24:22Z</time>
      </trkpt>
      <trkpt lat="59.9704814" lon="17.7527686">
        <ele>26.5736</ele>
        <time>2012-02-27T16:24:29Z</time>
      </trkpt>
      <trkpt lat="59.9704277" lon="17.7529148">
        <ele>26.0929</ele>
        <time>2012-02-27T16:24:35Z</time>
      </trkpt>
      <trkpt lat="59.9703716" lon="17.7530857">
        <ele>25.6123</ele>
        <time>2012-02-27T16:24:42Z</time>
      </trkpt>
      <trkpt lat="59.9703283" lon="17.7532385">
        <ele>25.6123</ele>
        <time>2012-02-27T16:24:48Z</time>
      </trkpt>
      <trkpt lat="59.9702775" lon="17.7533971">
        <ele>25.6123</ele>
        <time>2012-02-27T16:24:54Z</time>
      </trkpt>
      <trkpt lat="59.9702232" lon="17.7535219">
        <ele>26.5736</ele>
        <time>2012-02-27T16:24:59Z</time>
      </trkpt>
      <trkpt lat="59.9701118" lon="17.7537989">
        <ele>29.9381</ele>
        <time>2012-02-27T16:25:09Z</time>
      </trkpt>
      <trkpt lat="59.9700313" lon="17.7540083">
        <ele>32.3416</ele>
        <time>2012-02-27T16:25:16Z</time>
      </trkpt>
      <trkpt lat="59.9699601" lon="17.7541669">
        <ele>33.3029</ele>
        <time>2012-02-27T16:25:23Z</time>
      </trkpt>
      <trkpt lat="59.9698583" lon="17.7543775">
        <ele>35.2255</ele>
        <time>2012-02-27T16:25:32Z</time>
      </trkpt>
      <trkpt lat="59.9697686" lon="17.7545589">
        <ele>36.1868</ele>
        <time>2012-02-27T16:25:40Z</time>
      </trkpt>
      <trkpt lat="59.9697144" lon="17.754682">
        <ele>35.7061</ele>
        <time>2012-02-27T16:25:46Z</time>
      </trkpt>
      <trkpt lat="59.9696764" lon="17.7547858">
        <ele>34.2642</ele>
        <time>2012-02-27T16:25:51Z</time>
      </trkpt>
      <trkpt lat="59.9696384" lon="17.7548611">
        <ele>33.3029</ele>
        <time>2012-02-27T16:25:55Z</time>
      </trkpt>
      <trkpt lat="59.9696227" lon="17.7549028">
        <ele>33.3029</ele>
        <time>2012-02-27T16:25:57Z</time>
      </trkpt>
      <trkpt lat="59.9695347" lon="17.7550718">
        <ele>34.2642</ele>
        <time>2012-02-27T16:26:05Z</time>
      </trkpt>
      <trkpt lat="59.9694394" lon="17.7552472">
        <ele>32.3416</ele>
        <time>2012-02-27T16:26:14Z</time>
      </trkpt>
      <trkpt lat="59.9693641" lon="17.7553817">
        <ele>32.8223</ele>
        <time>2012-02-27T16:26:20Z</time>
      </trkpt>
      <trkpt lat="59.9692869" lon="17.7555509">
        <ele>34.7449</ele>
        <time>2012-02-27T16:26:27Z</time>
      </trkpt>
      <trkpt lat="59.9691703" lon="17.7557707">
        <ele>35.7061</ele>
        <time>2012-02-27T16:26:37Z</time>
      </trkpt>
      <trkpt lat="59.9690711" lon="17.7559665">
        <ele>35.7061</ele>
        <time>2012-02-27T16:26:46Z</time>
      </trkpt>
      <trkpt lat="59.9690178" lon="17.7560772">
        <ele>35.2255</ele>
        <time>2012-02-27T16:26:51Z</time>
      </trkpt>
      <trkpt lat="59.968939" lon="17.7562674">
        <ele>36.6675</ele>
        <time>2012-02-27T16:26:58Z</time>
      </trkpt>
      <trkpt lat="59.9688463" lon="17.7564631">
        <ele>38.1094</ele>
        <time>2012-02-27T16:27:07Z</time>
      </trkpt>
      <trkpt lat="59.9687826" lon="17.756571">
        <ele>37.1481</ele>
        <time>2012-02-27T16:27:13Z</time>
      </trkpt>
      <trkpt lat="59.9686891" lon="17.75671">
        <ele>31.8607</ele>
        <time>2012-02-27T16:27:21Z</time>
      </trkpt>
      <trkpt lat="59.9686514" lon="17.756791">
        <ele>25.6123</ele>
        <time>2012-02-27T16:27:27Z</time>
      </trkpt>
      <trkpt lat="59.9686032" lon="17.7568608">
        <ele>24.1703</ele>
        <time>2012-02-27T16:27:31Z</time>
      </trkpt>
      <trkpt lat="59.9685173" lon="17.7569962">
        <ele>24.1703</ele>
        <time>2012-02-27T16:27:39Z</time>
      </trkpt>
      <trkpt lat="59.9684422" lon="17.7571163">
        <ele>25.1317</ele>
        <time>2012-02-27T16:27:45Z</time>
      </trkpt>
      <trkpt lat="59.9683363" lon="17.7572744">
        <ele>24.651</ele>
        <time>2012-02-27T16:27:54Z</time>
      </trkpt>
      <trkpt lat="59.9682616" lon="17.7573774">
        <ele>24.651</ele>
        <time>2012-02-27T16:28:00Z</time>
      </trkpt>
      <trkpt lat="59.9681376" lon="17.75754">
        <ele>27.5349</ele>
        <time>2012-02-27T16:28:08Z</time>
      </trkpt>
      <trkpt lat="59.9680163" lon="17.757686">
        <ele>29.9381</ele>
        <time>2012-02-27T16:28:16Z</time>
      </trkpt>
      <trkpt lat="59.9679188" lon="17.7577799">
        <ele>30.4188</ele>
        <time>2012-02-27T16:28:22Z</time>
      </trkpt>
      <trkpt lat="59.9678114" lon="17.7578667">
        <ele>30.4188</ele>
        <time>2012-02-27T16:28:29Z</time>
      </trkpt>
      <trkpt lat="59.967727" lon="17.7579551">
        <ele>30.8995</ele>
        <time>2012-02-27T16:28:35Z</time>
      </trkpt>
      <trkpt lat="59.9676585" lon="17.7580052">
        <ele>28.9769</ele>
        <time>2012-02-27T16:28:40Z</time>
      </trkpt>
      <trkpt lat="59.9675766" lon="17.7581082">
        <ele>28.0155</ele>
        <time>2012-02-27T16:28:46Z</time>
      </trkpt>
      <trkpt lat="59.9675023" lon="17.7582342">
        <ele>26.0929</ele>
        <time>2012-02-27T16:28:52Z</time>
      </trkpt>
      <trkpt lat="59.9673969" lon="17.758325">
        <ele>24.651</ele>
        <time>2012-02-27T16:29:00Z</time>
      </trkpt>
      <trkpt lat="59.9673818" lon="17.7583436">
        <ele>24.651</ele>
        <time>2012-02-27T16:29:01Z</time>
      </trkpt>
      <trkpt lat="59.9673316" lon="17.7583668">
        <ele>25.1317</ele>
        <time>2012-02-27T16:29:04Z</time>
      </trkpt>
      <trkpt lat="59.9671819" lon="17.7584708">
        <ele>27.5349</ele>
        <time>2012-02-27T16:29:13Z</time>
      </trkpt>
      <trkpt lat="59.9670598" lon="17.758536">
        <ele>29.4575</ele>
        <time>2012-02-27T16:29:20Z</time>
      </trkpt>
      <trkpt lat="59.9669595" lon="17.758631">
        <ele>29.4575</ele>
        <time>2012-02-27T16:29:27Z</time>
      </trkpt>
      <trkpt lat="59.9668834" lon="17.7587096">
        <ele>28.0155</ele>
        <time>2012-02-27T16:29:31Z</time>
      </trkpt>
      <trkpt lat="59.9668244" lon="17.758774">
        <ele>26.5736</ele>
        <time>2012-02-27T16:29:36Z</time>
      </trkpt>
      <trkpt lat="59.9668139" lon="17.7588014">
        <ele>26.0929</ele>
        <time>2012-02-27T16:29:37Z</time>
      </trkpt>
      <trkpt lat="59.9667374" lon="17.7588021">
        <ele>27.5349</ele>
        <time>2012-02-27T16:29:41Z</time>
      </trkpt>
      <trkpt lat="59.9666965" lon="17.7588138">
        <ele>28.4962</ele>
        <time>2012-02-27T16:29:43Z</time>
      </trkpt>
      <trkpt lat="59.9666531" lon="17.7589345">
        <ele>29.4575</ele>
        <time>2012-02-27T16:29:47Z</time>
      </trkpt>
      <trkpt lat="59.9666142" lon="17.7590516">
        <ele>28.0155</ele>
        <time>2012-02-27T16:29:51Z</time>
      </trkpt>
      <trkpt lat="59.9665399" lon="17.7591184">
        <ele>26.0929</ele>
        <time>2012-02-27T16:29:57Z</time>
      </trkpt>
      <trkpt lat="59.9665138" lon="17.7591553">
        <ele>23.6896</ele>
        <time>2012-02-27T16:30:01Z</time>
      </trkpt>
      <trkpt lat="59.9664592" lon="17.7592348">
        <ele>23.6896</ele>
        <time>2012-02-27T16:30:06Z</time>
      </trkpt>
      <trkpt lat="59.9664011" lon="17.7593253">
        <ele>24.651</ele>
        <time>2012-02-27T16:30:11Z</time>
      </trkpt>
      <trkpt lat="59.9663487" lon="17.7593479">
        <ele>26.0929</ele>
        <time>2012-02-27T16:30:14Z</time>
      </trkpt>
      <trkpt lat="59.966297" lon="17.7594033">
        <ele>25.1317</ele>
        <time>2012-02-27T16:30:18Z</time>
      </trkpt>
      <trkpt lat="59.966232" lon="17.7595252">
        <ele>24.651</ele>
        <time>2012-02-27T16:30:23Z</time>
      </trkpt>
      <trkpt lat="59.9661624" lon="17.7596033">
        <ele>23.6896</ele>
        <time>2012-02-27T16:30:28Z</time>
      </trkpt>
      <trkpt lat="59.9661051" lon="17.759691">
        <ele>23.6896</ele>
        <time>2012-02-27T16:30:33Z</time>
      </trkpt>
      <trkpt lat="59.9660827" lon="17.7597249">
        <ele>23.209</ele>
        <time>2012-02-27T16:30:35Z</time>
      </trkpt>
      <trkpt lat="59.9660344" lon="17.7598381">
        <ele>22.7283</ele>
        <time>2012-02-27T16:30:40Z</time>
      </trkpt>
      <trkpt lat="59.9659919" lon="17.7599735">
        <ele>22.7283</ele>
        <time>2012-02-27T16:30:45Z</time>
      </trkpt>
      <trkpt lat="59.9659348" lon="17.7600243">
        <ele>23.209</ele>
        <time>2012-02-27T16:30:49Z</time>
      </trkpt>
      <trkpt lat="59.9659268" lon="17.7600523">
        <ele>23.209</ele>
        <time>2012-02-27T16:30:50Z</time>
      </trkpt>
      <trkpt lat="59.9658528" lon="17.7601767">
        <ele>27.0543</ele>
        <time>2012-02-27T16:30:55Z</time>
      </trkpt>
      <trkpt lat="59.9657632" lon="17.7602783">
        <ele>30.8995</ele>
        <time>2012-02-27T16:31:01Z</time>
      </trkpt>
      <trkpt lat="59.9656791" lon="17.7604175">
        <ele>32.3416</ele>
        <time>2012-02-27T16:31:08Z</time>
      </trkpt>
      <trkpt lat="59.9656175" lon="17.7604912">
        <ele>31.8607</ele>
        <time>2012-02-27T16:31:13Z</time>
      </trkpt>
      <trkpt lat="59.965532" lon="17.7606275">
        <ele>31.8607</ele>
        <time>2012-02-27T16:31:20Z</time>
      </trkpt>
      <trkpt lat="59.9655054" lon="17.7606787">
        <ele>32.3416</ele>
        <time>2012-02-27T16:31:22Z</time>
      </trkpt>
      <trkpt lat="59.9654227" lon="17.7608652">
        <ele>31.3801</ele>
        <time>2012-02-27T16:31:30Z</time>
      </trkpt>
      <trkpt lat="59.9653832" lon="17.7609978">
        <ele>32.3416</ele>
        <time>2012-02-27T16:31:35Z</time>
      </trkpt>
      <trkpt lat="59.9653341" lon="17.7611469">
        <ele>34.2642</ele>
        <time>2012-02-27T16:31:40Z</time>
      </trkpt>
      <trkpt lat="59.9652721" lon="17.7612936">
        <ele>33.3029</ele>
        <time>2012-02-27T16:31:47Z</time>
      </trkpt>
      <trkpt lat="59.9652695" lon="17.7611864">
        <ele>31.8607</ele>
        <time>2012-02-27T16:31:51Z</time>
      </trkpt>
      <trkpt lat="59.9653052" lon="17.7611056">
        <ele>31.3801</ele>
        <time>2012-02-27T16:31:54Z</time>
      </trkpt>
      <trkpt lat="59.9653771" lon="17.7608672">
        <ele>30.8995</ele>
        <time>2012-02-27T16:32:02Z</time>
      </trkpt>
      <trkpt lat="59.9654459" lon="17.7607021">
        <ele>30.4188</ele>
        <time>2012-02-27T16:32:09Z</time>
      </trkpt>
      <trkpt lat="59.9655547" lon="17.7605656">
        <ele>29.4575</ele>
        <time>2012-02-27T16:32:17Z</time>
      </trkpt>
      <trkpt lat="59.9656205" lon="17.7604395">
        <ele>29.4575</ele>
        <time>2012-02-27T16:32:23Z</time>
      </trkpt>
      <trkpt lat="59.9657279" lon="17.7603032">
        <ele>29.4575</ele>
        <time>2012-02-27T16:32:31Z</time>
      </trkpt>
      <trkpt lat="59.9657957" lon="17.7601799">
        <ele>29.4575</ele>
        <time>2012-02-27T16:32:37Z</time>
      </trkpt>
      <trkpt lat="59.9658473" lon="17.7600773">
        <ele>29.9381</ele>
        <time>2012-02-27T16:32:42Z</time>
      </trkpt>
      <trkpt lat="59.9659573" lon="17.7598893">
        <ele>30.4188</ele>
        <time>2012-02-27T16:32:51Z</time>
      </trkpt>
      <trkpt lat="59.9660449" lon="17.7597195">
        <ele>29.9381</ele>
        <time>2012-02-27T16:32:59Z</time>
      </trkpt>
      <trkpt lat="59.9661484" lon="17.7595624">
        <ele>29.9381</ele>
        <time>2012-02-27T16:33:07Z</time>
      </trkpt>
      <trkpt lat="59.9662692" lon="17.7593899">
        <ele>30.4188</ele>
        <time>2012-02-27T16:33:16Z</time>
      </trkpt>
      <trkpt lat="59.9663628" lon="17.7592106">
        <ele>30.8995</ele>
        <time>2012-02-27T16:33:24Z</time>
      </trkpt>
      <trkpt lat="59.9664432" lon="17.7590257">
        <ele>31.8607</ele>
        <time>2012-02-27T16:33:32Z</time>
      </trkpt>
      <trkpt lat="59.9665503" lon="17.7589175">
        <ele>30.8995</ele>
        <time>2012-02-27T16:33:40Z</time>
      </trkpt>
      <trkpt lat="59.9666461" lon="17.7588166">
        <ele>30.8995</ele>
        <time>2012-02-27T16:33:47Z</time>
      </trkpt>
      <trkpt lat="59.9667426" lon="17.7586849">
        <ele>31.3801</ele>
        <time>2012-02-27T16:33:55Z</time>
      </trkpt>
      <trkpt lat="59.9668571" lon="17.7585897">
        <ele>30.4188</ele>
        <time>2012-02-27T16:34:03Z</time>
      </trkpt>
      <trkpt lat="59.966955" lon="17.7585253">
        <ele>30.4188</ele>
        <time>2012-02-27T16:34:10Z</time>
      </trkpt>
      <trkpt lat="59.9670642" lon="17.7584397">
        <ele>30.8995</ele>
        <time>2012-02-27T16:34:17Z</time>
      </trkpt>
      <trkpt lat="59.9671515" lon="17.7583627">
        <ele>31.8607</ele>
        <time>2012-02-27T16:34:23Z</time>
      </trkpt>
      <trkpt lat="59.9672954" lon="17.7582362">
        <ele>32.3416</ele>
        <time>2012-02-27T16:34:33Z</time>
      </trkpt>
      <trkpt lat="59.9673915" lon="17.7581736">
        <ele>32.3416</ele>
        <time>2012-02-27T16:34:39Z</time>
      </trkpt>
      <trkpt lat="59.9675316" lon="17.7580543">
        <ele>32.8223</ele>
        <time>2012-02-27T16:34:48Z</time>
      </trkpt>
      <trkpt lat="59.9676409" lon="17.7579125">
        <ele>31.8607</ele>
        <time>2012-02-27T16:34:57Z</time>
      </trkpt>
      <trkpt lat="59.9677215" lon="17.7578227">
        <ele>32.8223</ele>
        <time>2012-02-27T16:35:03Z</time>
      </trkpt>
      <trkpt lat="59.9678108" lon="17.7577329">
        <ele>32.8223</ele>
        <time>2012-02-27T16:35:09Z</time>
      </trkpt>
      <trkpt lat="59.9679008" lon="17.7576178">
        <ele>33.7834</ele>
        <time>2012-02-27T16:35:16Z</time>
      </trkpt>
      <trkpt lat="59.9680134" lon="17.7574608">
        <ele>34.7449</ele>
        <time>2012-02-27T16:35:25Z</time>
      </trkpt>
      <trkpt lat="59.9681155" lon="17.7573267">
        <ele>35.2255</ele>
        <time>2012-02-27T16:35:33Z</time>
      </trkpt>
      <trkpt lat="59.9681718" lon="17.7572273">
        <ele>35.7061</ele>
        <time>2012-02-27T16:35:38Z</time>
      </trkpt>
      <trkpt lat="59.9682644" lon="17.7571126">
        <ele>36.1868</ele>
        <time>2012-02-27T16:35:45Z</time>
      </trkpt>
      <trkpt lat="59.968347" lon="17.7569936">
        <ele>35.7061</ele>
        <time>2012-02-27T16:35:52Z</time>
      </trkpt>
      <trkpt lat="59.9684464" lon="17.7568641">
        <ele>34.7449</ele>
        <time>2012-02-27T16:36:00Z</time>
      </trkpt>
      <trkpt lat="59.9685526" lon="17.75673">
        <ele>35.2255</ele>
        <time>2012-02-27T16:36:08Z</time>
      </trkpt>
      <trkpt lat="59.9685965" lon="17.7566476">
        <ele>35.2255</ele>
        <time>2012-02-27T16:36:12Z</time>
      </trkpt>
      <trkpt lat="59.9686939" lon="17.7564989">
        <ele>34.7449</ele>
        <time>2012-02-27T16:36:20Z</time>
      </trkpt>
      <trkpt lat="59.9687777" lon="17.7563874">
        <ele>33.3029</ele>
        <time>2012-02-27T16:36:26Z</time>
      </trkpt>
      <trkpt lat="59.9688526" lon="17.7562615">
        <ele>31.8607</ele>
        <time>2012-02-27T16:36:32Z</time>
      </trkpt>
      <trkpt lat="59.9689033" lon="17.7561201">
        <ele>31.3801</ele>
        <time>2012-02-27T16:36:38Z</time>
      </trkpt>
      <trkpt lat="59.9689438" lon="17.7559965">
        <ele>31.3801</ele>
        <time>2012-02-27T16:36:43Z</time>
      </trkpt>
      <trkpt lat="59.9690013" lon="17.7558632">
        <ele>31.8607</ele>
        <time>2012-02-27T16:36:49Z</time>
      </trkpt>
      <trkpt lat="59.9690824" lon="17.7557043">
        <ele>31.8607</ele>
        <time>2012-02-27T16:36:56Z</time>
      </trkpt>
      <trkpt lat="59.969155" lon="17.7555433">
        <ele>32.3416</ele>
        <time>2012-02-27T16:37:03Z</time>
      </trkpt>
      <trkpt lat="59.9692242" lon="17.7553944">
        <ele>32.8223</ele>
        <time>2012-02-27T16:37:09Z</time>
      </trkpt>
      <trkpt lat="59.9692732" lon="17.755279">
        <ele>32.3416</ele>
        <time>2012-02-27T16:37:14Z</time>
      </trkpt>
      <trkpt lat="59.9693239" lon="17.7551504">
        <ele>31.8607</ele>
        <time>2012-02-27T16:37:19Z</time>
      </trkpt>
      <trkpt lat="59.9693757" lon="17.7549768">
        <ele>31.8607</ele>
        <time>2012-02-27T16:37:26Z</time>
      </trkpt>
      <trkpt lat="59.9694341" lon="17.7548806">
        <ele>31.3801</ele>
        <time>2012-02-27T16:37:31Z</time>
      </trkpt>
      <trkpt lat="59.9694896" lon="17.7547413">
        <ele>31.8607</ele>
        <time>2012-02-27T16:37:37Z</time>
      </trkpt>
      <trkpt lat="59.9694979" lon="17.7547217">
        <ele>31.8607</ele>
        <time>2012-02-27T16:37:38Z</time>
      </trkpt>
      <trkpt lat="59.9695824" lon="17.7545398">
        <ele>31.3801</ele>
        <time>2012-02-27T16:37:46Z</time>
      </trkpt>
      <trkpt lat="59.9695979" lon="17.7544936">
        <ele>30.8995</ele>
        <time>2012-02-27T16:37:48Z</time>
      </trkpt>
      <trkpt lat="59.96967" lon="17.7543425">
        <ele>30.8995</ele>
        <time>2012-02-27T16:37:55Z</time>
      </trkpt>
      <trkpt lat="59.9697348" lon="17.7542387">
        <ele>30.4188</ele>
        <time>2012-02-27T16:38:00Z</time>
      </trkpt>
      <trkpt lat="59.9697923" lon="17.7541321">
        <ele>29.4575</ele>
        <time>2012-02-27T16:38:05Z</time>
      </trkpt>
      <trkpt lat="59.969837" lon="17.7540728">
        <ele>29.4575</ele>
        <time>2012-02-27T16:38:08Z</time>
      </trkpt>
      <trkpt lat="59.9699099" lon="17.7539252">
        <ele>29.4575</ele>
        <time>2012-02-27T16:38:15Z</time>
      </trkpt>
      <trkpt lat="59.9699197" lon="17.7538994">
        <ele>29.4575</ele>
        <time>2012-02-27T16:38:16Z</time>
      </trkpt>
      <trkpt lat="59.9699526" lon="17.7538239">
        <ele>29.9381</ele>
        <time>2012-02-27T16:38:19Z</time>
      </trkpt>
      <trkpt lat="59.9700284" lon="17.7536561">
        <ele>31.3801</ele>
        <time>2012-02-27T16:38:26Z</time>
      </trkpt>
      <trkpt lat="59.970062" lon="17.7535954">
        <ele>31.8607</ele>
        <time>2012-02-27T16:38:29Z</time>
      </trkpt>
      <trkpt lat="59.9701304" lon="17.753425">
        <ele>31.3801</ele>
        <time>2012-02-27T16:38:36Z</time>
      </trkpt>
      <trkpt lat="59.9701608" lon="17.7533156">
        <ele>29.9381</ele>
        <time>2012-02-27T16:38:40Z</time>
      </trkpt>
      <trkpt lat="59.9701965" lon="17.7531778">
        <ele>28.9769</ele>
        <time>2012-02-27T16:38:45Z</time>
      </trkpt>
      <trkpt lat="59.9702277" lon="17.7530667">
        <ele>28.0155</ele>
        <time>2012-02-27T16:38:49Z</time>
      </trkpt>
      <trkpt lat="59.9702796" lon="17.7528521">
        <ele>28.4962</ele>
        <time>2012-02-27T16:38:57Z</time>
      </trkpt>
      <trkpt lat="59.9703175" lon="17.7527199">
        <ele>30.4188</ele>
        <time>2012-02-27T16:39:02Z</time>
      </trkpt>
      <trkpt lat="59.9703759" lon="17.7525986">
        <ele>31.3801</ele>
        <time>2012-02-27T16:39:07Z</time>
      </trkpt>
      <trkpt lat="59.9704329" lon="17.7524853">
        <ele>30.8995</ele>
        <time>2012-02-27T16:39:12Z</time>
      </trkpt>
      <trkpt lat="59.9705198" lon="17.7523087">
        <ele>29.4575</ele>
        <time>2012-02-27T16:39:20Z</time>
      </trkpt>
      <trkpt lat="59.9705608" lon="17.752193">
        <ele>27.5349</ele>
        <time>2012-02-27T16:39:25Z</time>
      </trkpt>
      <trkpt lat="59.9705712" lon="17.7521682">
        <ele>28.0155</ele>
        <time>2012-02-27T16:39:26Z</time>
      </trkpt>
      <trkpt lat="59.9706058" lon="17.7520684">
        <ele>28.4962</ele>
        <time>2012-02-27T16:39:30Z</time>
      </trkpt>
      <trkpt lat="59.9706829" lon="17.7518723">
        <ele>29.9381</ele>
        <time>2012-02-27T16:39:38Z</time>
      </trkpt>
      <trkpt lat="59.970721" lon="17.7518565">
        <ele>29.4575</ele>
        <time>2012-02-27T16:39:40Z</time>
      </trkpt>
      <trkpt lat="59.9708069" lon="17.7517121">
        <ele>29.4575</ele>
        <time>2012-02-27T16:39:47Z</time>
      </trkpt>
      <trkpt lat="59.9708852" lon="17.7516228">
        <ele>29.4575</ele>
        <time>2012-02-27T16:39:52Z</time>
      </trkpt>
      <trkpt lat="59.9709712" lon="17.7515378">
        <ele>28.4962</ele>
        <time>2012-02-27T16:39:58Z</time>
      </trkpt>
      <trkpt lat="59.9710274" lon="17.7514732">
        <ele>28.0155</ele>
        <time>2012-02-27T16:40:02Z</time>
      </trkpt>
      <trkpt lat="59.9711243" lon="17.7513875">
        <ele>28.0155</ele>
        <time>2012-02-27T16:40:09Z</time>
      </trkpt>
      <trkpt lat="59.9711913" lon="17.7513134">
        <ele>28.4962</ele>
        <time>2012-02-27T16:40:14Z</time>
      </trkpt>
      <trkpt lat="59.9712706" lon="17.751225">
        <ele>28.9769</ele>
        <time>2012-02-27T16:40:20Z</time>
      </trkpt>
      <trkpt lat="59.9713727" lon="17.7510858">
        <ele>29.4575</ele>
        <time>2012-02-27T16:40:28Z</time>
      </trkpt>
      <trkpt lat="59.9714643" lon="17.7509412">
        <ele>29.9381</ele>
        <time>2012-02-27T16:40:36Z</time>
      </trkpt>
      <trkpt lat="59.9715463" lon="17.7508146">
        <ele>29.9381</ele>
        <time>2012-02-27T16:40:43Z</time>
      </trkpt>
      <trkpt lat="59.9716503" lon="17.7506184">
        <ele>31.3801</ele>
        <time>2012-02-27T16:40:52Z</time>
      </trkpt>
      <trkpt lat="59.9717321" lon="17.7504976">
        <ele>33.3029</ele>
        <time>2012-02-27T16:40:58Z</time>
      </trkpt>
      <trkpt lat="59.9718036" lon="17.7503316">
        <ele>34.2642</ele>
        <time>2012-02-27T16:41:05Z</time>
      </trkpt>
      <trkpt lat="59.9718844" lon="17.7501842">
        <ele>34.7449</ele>
        <time>2012-02-27T16:41:12Z</time>
      </trkpt>
      <trkpt lat="59.9719595" lon="17.7500283">
        <ele>34.7449</ele>
        <time>2012-02-27T16:41:19Z</time>
      </trkpt>
      <trkpt lat="59.9720036" lon="17.7498931">
        <ele>36.1868</ele>
        <time>2012-02-27T16:41:24Z</time>
      </trkpt>
      <trkpt lat="59.9720443" lon="17.7497078">
        <ele>37.1481</ele>
        <time>2012-02-27T16:41:30Z</time>
      </trkpt>
      <trkpt lat="59.9720686" lon="17.7496525">
        <ele>38.5901</ele>
        <time>2012-02-27T16:41:32Z</time>
      </trkpt>
      <trkpt lat="59.9721217" lon="17.7495372">
        <ele>39.5513</ele>
        <time>2012-02-27T16:41:37Z</time>
      </trkpt>
      <trkpt lat="59.9722081" lon="17.7494089">
        <ele>39.0707</ele>
        <time>2012-02-27T16:41:44Z</time>
      </trkpt>
      <trkpt lat="59.9722652" lon="17.7492909">
        <ele>40.9934</ele>
        <time>2012-02-27T16:41:49Z</time>
      </trkpt>
      <trkpt lat="59.9722977" lon="17.7492343">
        <ele>42.4354</ele>
        <time>2012-02-27T16:41:51Z</time>
      </trkpt>
      <trkpt lat="59.9723875" lon="17.7491508">
        <ele>45.3192</ele>
        <time>2012-02-27T16:41:56Z</time>
      </trkpt>
      <trkpt lat="59.9723976" lon="17.7490302">
        <ele>42.916</ele>
        <time>2012-02-27T16:42:01Z</time>
      </trkpt>
      <trkpt lat="59.9724667" lon="17.7488235">
        <ele>46.2806</ele>
        <time>2012-02-27T16:42:08Z</time>
      </trkpt>
      <trkpt lat="59.9725234" lon="17.7486345">
        <ele>44.8386</ele>
        <time>2012-02-27T16:42:15Z</time>
      </trkpt>
      <trkpt lat="59.9725955" lon="17.7485075">
        <ele>40.9934</ele>
        <time>2012-02-27T16:42:22Z</time>
      </trkpt>
      <trkpt lat="59.9726427" lon="17.7484521">
        <ele>39.0707</ele>
        <time>2012-02-27T16:42:26Z</time>
      </trkpt>
      <trkpt lat="59.9726629" lon="17.7483942">
        <ele>37.1481</ele>
        <time>2012-02-27T16:42:29Z</time>
      </trkpt>
      <trkpt lat="59.9727131" lon="17.7482807">
        <ele>35.7061</ele>
        <time>2012-02-27T16:42:34Z</time>
      </trkpt>
      <trkpt lat="59.9728002" lon="17.7481803">
        <ele>33.7834</ele>
        <time>2012-02-27T16:42:40Z</time>
      </trkpt>
      <trkpt lat="59.9728905" lon="17.7480827">
        <ele>34.7449</ele>
        <time>2012-02-27T16:42:46Z</time>
      </trkpt>
      <trkpt lat="59.9729054" lon="17.7480429">
        <ele>34.2642</ele>
        <time>2012-02-27T16:42:48Z</time>
      </trkpt>
      <trkpt lat="59.9730043" lon="17.7479018">
        <ele>33.7834</ele>
        <time>2012-02-27T16:42:56Z</time>
      </trkpt>
      <trkpt lat="59.9730914" lon="17.7477766">
        <ele>33.3029</ele>
        <time>2012-02-27T16:43:03Z</time>
      </trkpt>
      <trkpt lat="59.9731763" lon="17.7476669">
        <ele>34.2642</ele>
        <time>2012-02-27T16:43:10Z</time>
      </trkpt>
      <trkpt lat="59.9733005" lon="17.7475161">
        <ele>38.1094</ele>
        <time>2012-02-27T16:43:19Z</time>
      </trkpt>
      <trkpt lat="59.9733706" lon="17.7474482">
        <ele>38.1094</ele>
        <time>2012-02-27T16:43:24Z</time>
      </trkpt>
      <trkpt lat="59.9734596" lon="17.7473425">
        <ele>37.6287</ele>
        <time>2012-02-27T16:43:31Z</time>
      </trkpt>
      <trkpt lat="59.973562" lon="17.7472413">
        <ele>35.7061</ele>
        <time>2012-02-27T16:43:39Z</time>
      </trkpt>
      <trkpt lat="59.9735898" lon="17.7471849">
        <ele>34.7449</ele>
        <time>2012-02-27T16:43:42Z</time>
      </trkpt>
      <trkpt lat="59.9736551" lon="17.7471235">
        <ele>35.2255</ele>
        <time>2012-02-27T16:43:47Z</time>
      </trkpt>
      <trkpt lat="59.9737284" lon="17.7470441">
        <ele>33.3029</ele>
        <time>2012-02-27T16:43:53Z</time>
      </trkpt>
      <trkpt lat="59.9738548" lon="17.7469017">
        <ele>35.7061</ele>
        <time>2012-02-27T16:44:02Z</time>
      </trkpt>
      <trkpt lat="59.9739553" lon="17.746772">
        <ele>36.1868</ele>
        <time>2012-02-27T16:44:10Z</time>
      </trkpt>
      <trkpt lat="59.9740195" lon="17.7466888">
        <ele>35.2255</ele>
        <time>2012-02-27T16:44:15Z</time>
      </trkpt>
      <trkpt lat="59.9741191" lon="17.7465464">
        <ele>34.7449</ele>
        <time>2012-02-27T16:44:23Z</time>
      </trkpt>
      <trkpt lat="59.9742103" lon="17.7464265">
        <ele>36.1868</ele>
        <time>2012-02-27T16:44:30Z</time>
      </trkpt>
      <trkpt lat="59.9743066" lon="17.7463188">
        <ele>36.1868</ele>
        <time>2012-02-27T16:44:37Z</time>
      </trkpt>
      <trkpt lat="59.9743774" lon="17.746223">
        <ele>34.2642</ele>
        <time>2012-02-27T16:44:43Z</time>
      </trkpt>
      <trkpt lat="59.9744284" lon="17.7461221">
        <ele>33.7834</ele>
        <time>2012-02-27T16:44:48Z</time>
      </trkpt>
      <trkpt lat="59.9744837" lon="17.7460517">
        <ele>34.7449</ele>
        <time>2012-02-27T16:44:52Z</time>
      </trkpt>
      <trkpt lat="59.9745578" lon="17.7459314">
        <ele>35.2255</ele>
        <time>2012-02-27T16:44:58Z</time>
      </trkpt>
      <trkpt lat="59.9746479" lon="17.7457501">
        <ele>36.6675</ele>
        <time>2012-02-27T16:45:06Z</time>
      </trkpt>
      <trkpt lat="59.9747184" lon="17.7456046">
        <ele>35.7061</ele>
        <time>2012-02-27T16:45:12Z</time>
      </trkpt>
      <trkpt lat="59.9748043" lon="17.7454861">
        <ele>34.7449</ele>
        <time>2012-02-27T16:45:18Z</time>
      </trkpt>
      <trkpt lat="59.9748619" lon="17.7453109">
        <ele>33.3029</ele>
        <time>2012-02-27T16:45:25Z</time>
      </trkpt>
      <trkpt lat="59.974914" lon="17.7451742">
        <ele>33.3029</ele>
        <time>2012-02-27T16:45:31Z</time>
      </trkpt>
      <trkpt lat="59.9749643" lon="17.7450203">
        <ele>32.3416</ele>
        <time>2012-02-27T16:45:37Z</time>
      </trkpt>
      <trkpt lat="59.9750022" lon="17.7449183">
        <ele>33.3029</ele>
        <time>2012-02-27T16:45:41Z</time>
      </trkpt>
      <trkpt lat="59.9750318" lon="17.744811">
        <ele>33.7834</ele>
        <time>2012-02-27T16:45:45Z</time>
      </trkpt>
      <trkpt lat="59.9750904" lon="17.7445354">
        <ele>35.2255</ele>
        <time>2012-02-27T16:45:55Z</time>
      </trkpt>
      <trkpt lat="59.975153" lon="17.7442884">
        <ele>36.6675</ele>
        <time>2012-02-27T16:46:04Z</time>
      </trkpt>
      <trkpt lat="59.9751966" lon="17.7441236">
        <ele>36.6675</ele>
        <time>2012-02-27T16:46:10Z</time>
      </trkpt>
      <trkpt lat="59.9752478" lon="17.7438587">
        <ele>37.1481</ele>
        <time>2012-02-27T16:46:19Z</time>
      </trkpt>
      <trkpt lat="59.9752889" lon="17.7436631">
        <ele>36.6675</ele>
        <time>2012-02-27T16:46:26Z</time>
      </trkpt>
      <trkpt lat="59.9752914" lon="17.7436341">
        <ele>36.6675</ele>
        <time>2012-02-27T16:46:27Z</time>
      </trkpt>
      <trkpt lat="59.9753404" lon="17.7433861">
        <ele>37.1481</ele>
        <time>2012-02-27T16:46:36Z</time>
      </trkpt>
      <trkpt lat="59.9753618" lon="17.7432763">
        <ele>37.6287</ele>
        <time>2012-02-27T16:46:40Z</time>
      </trkpt>
      <trkpt lat="59.975413" lon="17.7430504">
        <ele>38.5901</ele>
        <time>2012-02-27T16:46:48Z</time>
      </trkpt>
      <trkpt lat="59.9754742" lon="17.7428041">
        <ele>38.1094</ele>
        <time>2012-02-27T16:46:57Z</time>
      </trkpt>
      <trkpt lat="59.9755125" lon="17.7426165">
        <ele>37.6287</ele>
        <time>2012-02-27T16:47:04Z</time>
      </trkpt>
      <trkpt lat="59.9755649" lon="17.7424021">
        <ele>37.1481</ele>
        <time>2012-02-27T16:47:12Z</time>
      </trkpt>
      <trkpt lat="59.9756083" lon="17.742218">
        <ele>37.1481</ele>
        <time>2012-02-27T16:47:19Z</time>
      </trkpt>
      <trkpt lat="59.975641" lon="17.7420851">
        <ele>37.6287</ele>
        <time>2012-02-27T16:47:24Z</time>
      </trkpt>
      <trkpt lat="59.9757025" lon="17.7418153">
        <ele>39.0707</ele>
        <time>2012-02-27T16:47:34Z</time>
      </trkpt>
      <trkpt lat="59.9757499" lon="17.7416107">
        <ele>38.1094</ele>
        <time>2012-02-27T16:47:42Z</time>
      </trkpt>
      <trkpt lat="59.9758" lon="17.7413949">
        <ele>37.6287</ele>
        <time>2012-02-27T16:47:50Z</time>
      </trkpt>
      <trkpt lat="59.9758565" lon="17.7411734">
        <ele>37.6287</ele>
        <time>2012-02-27T16:47:58Z</time>
      </trkpt>
      <trkpt lat="59.9759234" lon="17.740962">
        <ele>37.1481</ele>
        <time>2012-02-27T16:48:06Z</time>
      </trkpt>
      <trkpt lat="59.9759922" lon="17.7407556">
        <ele>37.6287</ele>
        <time>2012-02-27T16:48:14Z</time>
      </trkpt>
      <trkpt lat="59.9760325" lon="17.7405951">
        <ele>37.1481</ele>
        <time>2012-02-27T16:48:20Z</time>
      </trkpt>
      <trkpt lat="59.9760678" lon="17.7404314">
        <ele>36.6675</ele>
        <time>2012-02-27T16:48:26Z</time>
      </trkpt>
      <trkpt lat="59.9761466" lon="17.7402407">
        <ele>35.2255</ele>
        <time>2012-02-27T16:48:34Z</time>
      </trkpt>
      <trkpt lat="59.9761886" lon="17.7400769">
        <ele>35.7061</ele>
        <time>2012-02-27T16:48:40Z</time>
      </trkpt>
      <trkpt lat="59.9762148" lon="17.7399082">
        <ele>34.2642</ele>
        <time>2012-02-27T16:48:46Z</time>
      </trkpt>
      <trkpt lat="59.9761637" lon="17.7397418">
        <ele>34.2642</ele>
        <time>2012-02-27T16:48:53Z</time>
      </trkpt>
      <trkpt lat="59.9760269" lon="17.739576">
        <ele>37.6287</ele>
        <time>2012-02-27T16:49:01Z</time>
      </trkpt>
      <trkpt lat="59.9759559" lon="17.7394552">
        <ele>38.1094</ele>
        <time>2012-02-27T16:49:07Z</time>
      </trkpt>
      <trkpt lat="59.9758932" lon="17.7393745">
        <ele>40.5128</ele>
        <time>2012-02-27T16:49:11Z</time>
      </trkpt>
      <trkpt lat="59.9757771" lon="17.7392056">
        <ele>43.8773</ele>
        <time>2012-02-27T16:49:18Z</time>
      </trkpt>
      <trkpt lat="59.9757436" lon="17.7391409">
        <ele>41.474</ele>
        <time>2012-02-27T16:49:23Z</time>
      </trkpt>
      <trkpt lat="59.9756771" lon="17.7390182">
        <ele>40.0321</ele>
        <time>2012-02-27T16:49:30Z</time>
      </trkpt>
      <trkpt lat="59.9755664" lon="17.7388151">
        <ele>38.5901</ele>
        <time>2012-02-27T16:49:40Z</time>
      </trkpt>
      <trkpt lat="59.9754598" lon="17.7386106">
        <ele>37.6287</ele>
        <time>2012-02-27T16:49:49Z</time>
      </trkpt>
      <trkpt lat="59.9753733" lon="17.7384623">
        <ele>38.1094</ele>
        <time>2012-02-27T16:49:56Z</time>
      </trkpt>
      <trkpt lat="59.9752795" lon="17.7383048">
        <ele>38.1094</ele>
        <time>2012-02-27T16:50:04Z</time>
      </trkpt>
      <trkpt lat="59.9751857" lon="17.7381453">
        <ele>38.5901</ele>
        <time>2012-02-27T16:50:12Z</time>
      </trkpt>
      <trkpt lat="59.9750969" lon="17.7379912">
        <ele>38.1094</ele>
        <time>2012-02-27T16:50:20Z</time>
      </trkpt>
      <trkpt lat="59.9750387" lon="17.7378955">
        <ele>37.6287</ele>
        <time>2012-02-27T16:50:25Z</time>
      </trkpt>
      <trkpt lat="59.9749615" lon="17.7377765">
        <ele>37.6287</ele>
        <time>2012-02-27T16:50:32Z</time>
      </trkpt>
      <trkpt lat="59.9748531" lon="17.7375693">
        <ele>38.1094</ele>
        <time>2012-02-27T16:50:42Z</time>
      </trkpt>
      <trkpt lat="59.9747941" lon="17.737425">
        <ele>37.1481</ele>
        <time>2012-02-27T16:50:48Z</time>
      </trkpt>
      <trkpt lat="59.974675" lon="17.7371459">
        <ele>37.1481</ele>
        <time>2012-02-27T16:51:00Z</time>
      </trkpt>
      <trkpt lat="59.9746015" lon="17.7369138">
        <ele>36.1868</ele>
        <time>2012-02-27T16:51:09Z</time>
      </trkpt>
      <trkpt lat="59.9745216" lon="17.7366224">
        <ele>35.2255</ele>
        <time>2012-02-27T16:51:20Z</time>
      </trkpt>
      <trkpt lat="59.9744504" lon="17.736297">
        <ele>34.2642</ele>
        <time>2012-02-27T16:51:32Z</time>
      </trkpt>
      <trkpt lat="59.974404" lon="17.7360712">
        <ele>33.3029</ele>
        <time>2012-02-27T16:51:40Z</time>
      </trkpt>
      <trkpt lat="59.9743558" lon="17.7357695">
        <ele>32.8223</ele>
        <time>2012-02-27T16:51:50Z</time>
      </trkpt>
      <trkpt lat="59.974319" lon="17.735506">
        <ele>31.8607</ele>
        <time>2012-02-27T16:51:59Z</time>
      </trkpt>
      <trkpt lat="59.9742916" lon="17.7352025">
        <ele>30.4188</ele>
        <time>2012-02-27T16:52:09Z</time>
      </trkpt>
      <trkpt lat="59.9742878" lon="17.7350481">
        <ele>29.9381</ele>
        <time>2012-02-27T16:52:14Z</time>
      </trkpt>
      <trkpt lat="59.9742764" lon="17.7349258">
        <ele>29.9381</ele>
        <time>2012-02-27T16:52:18Z</time>
      </trkpt>
      <trkpt lat="59.974262" lon="17.7346761">
        <ele>29.9381</ele>
        <time>2012-02-27T16:52:26Z</time>
      </trkpt>
      <trkpt lat="59.9742579" lon="17.7344917">
        <ele>28.9769</ele>
        <time>2012-02-27T16:52:32Z</time>
      </trkpt>
      <trkpt lat="59.974262" lon="17.7342087">
        <ele>28.0155</ele>
        <time>2012-02-27T16:52:41Z</time>
      </trkpt>
      <trkpt lat="59.974273" lon="17.7340514">
        <ele>27.5349</ele>
        <time>2012-02-27T16:52:46Z</time>
      </trkpt>
      <trkpt lat="59.9742894" lon="17.7337624">
        <ele>27.5349</ele>
        <time>2012-02-27T16:52:55Z</time>
      </trkpt>
      <trkpt lat="59.9743057" lon="17.733478">
        <ele>27.5349</ele>
        <time>2012-02-27T16:53:04Z</time>
      </trkpt>
      <trkpt lat="59.9743188" lon="17.733148">
        <ele>27.0543</ele>
        <time>2012-02-27T16:53:15Z</time>
      </trkpt>
      <trkpt lat="59.9743216" lon="17.7328692">
        <ele>27.5349</ele>
        <time>2012-02-27T16:53:24Z</time>
      </trkpt>
      <trkpt lat="59.9743231" lon="17.7325606">
        <ele>27.0543</ele>
        <time>2012-02-27T16:53:34Z</time>
      </trkpt>
      <trkpt lat="59.9743106" lon="17.7322166">
        <ele>27.5349</ele>
        <time>2012-02-27T16:53:45Z</time>
      </trkpt>
      <trkpt lat="59.9743081" lon="17.7319546">
        <ele>28.0155</ele>
        <time>2012-02-27T16:53:54Z</time>
      </trkpt>
      <trkpt lat="59.9743087" lon="17.7317288">
        <ele>28.0155</ele>
        <time>2012-02-27T16:54:01Z</time>
      </trkpt>
      <trkpt lat="59.9743076" lon="17.7315525">
        <ele>28.4962</ele>
        <time>2012-02-27T16:54:07Z</time>
      </trkpt>
      <trkpt lat="59.9743004" lon="17.7313128">
        <ele>29.4575</ele>
        <time>2012-02-27T16:54:15Z</time>
      </trkpt>
      <trkpt lat="59.9742987" lon="17.7312469">
        <ele>29.9381</ele>
        <time>2012-02-27T16:54:17Z</time>
      </trkpt>
      <trkpt lat="59.9743071" lon="17.7310341">
        <ele>29.4575</ele>
        <time>2012-02-27T16:54:24Z</time>
      </trkpt>
      <trkpt lat="59.974316" lon="17.7309103">
        <ele>29.4575</ele>
        <time>2012-02-27T16:54:28Z</time>
      </trkpt>
      <trkpt lat="59.9743093" lon="17.7307785">
        <ele>29.4575</ele>
        <time>2012-02-27T16:54:32Z</time>
      </trkpt>
      <trkpt lat="59.9743349" lon="17.7305394">
        <ele>29.4575</ele>
        <time>2012-02-27T16:54:40Z</time>
      </trkpt>
      <trkpt lat="59.9743539" lon="17.7303508">
        <ele>28.9769</ele>
        <time>2012-02-27T16:54:46Z</time>
      </trkpt>
      <trkpt lat="59.974367" lon="17.7301254">
        <ele>29.4575</ele>
        <time>2012-02-27T16:54:53Z</time>
      </trkpt>
      <trkpt lat="59.9743782" lon="17.7298566">
        <ele>30.8995</ele>
        <time>2012-02-27T16:55:02Z</time>
      </trkpt>
      <trkpt lat="59.9743889" lon="17.7296416">
        <ele>31.8607</ele>
        <time>2012-02-27T16:55:09Z</time>
      </trkpt>
      <trkpt lat="59.9743988" lon="17.7293974">
        <ele>31.8607</ele>
        <time>2012-02-27T16:55:17Z</time>
      </trkpt>
      <trkpt lat="59.9743947" lon="17.7291883">
        <ele>32.3416</ele>
        <time>2012-02-27T16:55:24Z</time>
      </trkpt>
      <trkpt lat="59.9743917" lon="17.7289012">
        <ele>32.8223</ele>
        <time>2012-02-27T16:55:33Z</time>
      </trkpt>
      <trkpt lat="59.9743936" lon="17.7287071">
        <ele>32.3416</ele>
        <time>2012-02-27T16:55:39Z</time>
      </trkpt>
      <trkpt lat="59.9743894" lon="17.7283772">
        <ele>31.8607</ele>
        <time>2012-02-27T16:55:49Z</time>
      </trkpt>
      <trkpt lat="59.9743818" lon="17.7279576">
        <ele>32.3416</ele>
        <time>2012-02-27T16:56:02Z</time>
      </trkpt>
      <trkpt lat="59.9743772" lon="17.7277241">
        <ele>32.3416</ele>
        <time>2012-02-27T16:56:10Z</time>
      </trkpt>
      <trkpt lat="59.9743791" lon="17.7275687">
        <ele>31.8607</ele>
        <time>2012-02-27T16:56:15Z</time>
      </trkpt>
      <trkpt lat="59.9743774" lon="17.7272174">
        <ele>30.8995</ele>
        <time>2012-02-27T16:56:26Z</time>
      </trkpt>
      <trkpt lat="59.9743777" lon="17.7271599">
        <ele>31.3801</ele>
        <time>2012-02-27T16:56:28Z</time>
      </trkpt>
      <trkpt lat="59.9743719" lon="17.7269692">
        <ele>30.8995</ele>
        <time>2012-02-27T16:56:34Z</time>
      </trkpt>
      <trkpt lat="59.9743697" lon="17.7268753">
        <ele>30.4188</ele>
        <time>2012-02-27T16:56:37Z</time>
      </trkpt>
      <trkpt lat="59.9743653" lon="17.726502">
        <ele>29.9381</ele>
        <time>2012-02-27T16:56:49Z</time>
      </trkpt>
      <trkpt lat="59.974348" lon="17.7262466">
        <ele>28.4962</ele>
        <time>2012-02-27T16:56:57Z</time>
      </trkpt>
      <trkpt lat="59.9743376" lon="17.7260933">
        <ele>28.9769</ele>
        <time>2012-02-27T16:57:02Z</time>
      </trkpt>
      <trkpt lat="59.9743382" lon="17.7259688">
        <ele>29.4575</ele>
        <time>2012-02-27T16:57:06Z</time>
      </trkpt>
      <trkpt lat="59.9743233" lon="17.7257011">
        <ele>29.9381</ele>
        <time>2012-02-27T16:57:15Z</time>
      </trkpt>
      <trkpt lat="59.974309" lon="17.7254871">
        <ele>28.9769</ele>
        <time>2012-02-27T16:57:22Z</time>
      </trkpt>
      <trkpt lat="59.974302" lon="17.7254007">
        <ele>28.4962</ele>
        <time>2012-02-27T16:57:25Z</time>
      </trkpt>
      <trkpt lat="59.9743466" lon="17.7253702">
        <ele>28.0155</ele>
        <time>2012-02-27T16:57:29Z</time>
      </trkpt>
      <trkpt lat="59.9743812" lon="17.725482">
        <ele>27.5349</ele>
        <time>2012-02-27T16:57:33Z</time>
      </trkpt>
      <trkpt lat="59.9743895" lon="17.7255499">
        <ele>27.0543</ele>
        <time>2012-02-27T16:57:35Z</time>
      </trkpt>
      <trkpt lat="59.9744076" lon="17.7257318">
        <ele>27.0543</ele>
        <time>2012-02-27T16:57:41Z</time>
      </trkpt>
      <trkpt lat="59.974434" lon="17.7260744">
        <ele>26.5736</ele>
        <time>2012-02-27T16:57:52Z</time>
      </trkpt>
      <trkpt lat="59.9744432" lon="17.7263161">
        <ele>27.0543</ele>
        <time>2012-02-27T16:58:00Z</time>
      </trkpt>
      <trkpt lat="59.9744424" lon="17.7264062">
        <ele>27.0543</ele>
        <time>2012-02-27T16:58:03Z</time>
      </trkpt>
      <trkpt lat="59.9744408" lon="17.7265479">
        <ele>26.5736</ele>
        <time>2012-02-27T16:58:08Z</time>
      </trkpt>
      <trkpt lat="59.9744429" lon="17.726754">
        <ele>26.0929</ele>
        <time>2012-02-27T16:58:15Z</time>
      </trkpt>
      <trkpt lat="59.9744443" lon="17.7267869">
        <ele>26.0929</ele>
        <time>2012-02-27T16:58:16Z</time>
      </trkpt>
      <trkpt lat="59.974463" lon="17.727066">
        <ele>26.5736</ele>
        <time>2012-02-27T16:58:25Z</time>
      </trkpt>
      <trkpt lat="59.974477" lon="17.7272617">
        <ele>26.5736</ele>
        <time>2012-02-27T16:58:31Z</time>
      </trkpt>
      <trkpt lat="59.974477" lon="17.7274603">
        <ele>27.0543</ele>
        <time>2012-02-27T16:58:37Z</time>
      </trkpt>
      <trkpt lat="59.9744815" lon="17.7277033">
        <ele>27.0543</ele>
        <time>2012-02-27T16:58:45Z</time>
      </trkpt>
      <trkpt lat="59.9744831" lon="17.7279374">
        <ele>27.5349</ele>
        <time>2012-02-27T16:58:52Z</time>
      </trkpt>
      <trkpt lat="59.9744792" lon="17.7281994">
        <ele>26.5736</ele>
        <time>2012-02-27T16:59:00Z</time>
      </trkpt>
      <trkpt lat="59.9744795" lon="17.7283871">
        <ele>26.0929</ele>
        <time>2012-02-27T16:59:06Z</time>
      </trkpt>
      <trkpt lat="59.9744812" lon="17.7286481">
        <ele>26.5736</ele>
        <time>2012-02-27T16:59:14Z</time>
      </trkpt>
      <trkpt lat="59.9744882" lon="17.7288056">
        <ele>26.5736</ele>
        <time>2012-02-27T16:59:19Z</time>
      </trkpt>
      <trkpt lat="59.9744957" lon="17.7290707">
        <ele>26.5736</ele>
        <time>2012-02-27T16:59:28Z</time>
      </trkpt>
      <trkpt lat="59.9745004" lon="17.7294852">
        <ele>27.0543</ele>
        <time>2012-02-27T16:59:41Z</time>
      </trkpt>
      <trkpt lat="59.9744847" lon="17.7297313">
        <ele>26.5736</ele>
        <time>2012-02-27T16:59:49Z</time>
      </trkpt>
      <trkpt lat="59.9744689" lon="17.7300414">
        <ele>27.5349</ele>
        <time>2012-02-27T16:59:59Z</time>
      </trkpt>
      <trkpt lat="59.9744497" lon="17.7303079">
        <ele>27.0543</ele>
        <time>2012-02-27T17:00:08Z</time>
      </trkpt>
      <trkpt lat="59.9744199" lon="17.7305845">
        <ele>26.5736</ele>
        <time>2012-02-27T17:00:17Z</time>
      </trkpt>
      <trkpt lat="59.9743947" lon="17.730865">
        <ele>26.0929</ele>
        <time>2012-02-27T17:00:26Z</time>
      </trkpt>
      <trkpt lat="59.974362" lon="17.7311053">
        <ele>24.651</ele>
        <time>2012-02-27T17:00:34Z</time>
      </trkpt>
      <trkpt lat="59.9743365" lon="17.7312716">
        <ele>22.7283</ele>
        <time>2012-02-27T17:00:40Z</time>
      </trkpt>
      <trkpt lat="59.974321" lon="17.7314008">
        <ele>21.2864</ele>
        <time>2012-02-27T17:00:45Z</time>
      </trkpt>
      <trkpt lat="59.9743201" lon="17.7316598">
        <ele>20.8057</ele>
        <time>2012-02-27T17:00:53Z</time>
      </trkpt>
      <trkpt lat="59.9743248" lon="17.7319079">
        <ele>21.767</ele>
        <time>2012-02-27T17:01:01Z</time>
      </trkpt>
      <trkpt lat="59.9743429" lon="17.7322144">
        <ele>22.2476</ele>
        <time>2012-02-27T17:01:10Z</time>
      </trkpt>
      <trkpt lat="59.9743444" lon="17.7324143">
        <ele>21.2864</ele>
        <time>2012-02-27T17:01:15Z</time>
      </trkpt>
      <trkpt lat="59.9743361" lon="17.732612">
        <ele>18.4023</ele>
        <time>2012-02-27T17:01:22Z</time>
      </trkpt>
      <trkpt lat="59.9743302" lon="17.7328533">
        <ele>17.4412</ele>
        <time>2012-02-27T17:01:30Z</time>
      </trkpt>
      <trkpt lat="59.9743279" lon="17.733107">
        <ele>17.9218</ele>
        <time>2012-02-27T17:01:38Z</time>
      </trkpt>
      <trkpt lat="59.9743196" lon="17.73341">
        <ele>18.4023</ele>
        <time>2012-02-27T17:01:48Z</time>
      </trkpt>
      <trkpt lat="59.9743192" lon="17.7335588">
        <ele>17.9218</ele>
        <time>2012-02-27T17:01:53Z</time>
      </trkpt>
      <trkpt lat="59.9743096" lon="17.7337342">
        <ele>18.8831</ele>
        <time>2012-02-27T17:01:59Z</time>
      </trkpt>
      <trkpt lat="59.9743086" lon="17.7338927">
        <ele>19.3638</ele>
        <time>2012-02-27T17:02:04Z</time>
      </trkpt>
      <trkpt lat="59.9742911" lon="17.734138">
        <ele>17.9218</ele>
        <time>2012-02-27T17:02:12Z</time>
      </trkpt>
      <trkpt lat="59.9742842" lon="17.7343913">
        <ele>17.9218</ele>
        <time>2012-02-27T17:02:20Z</time>
      </trkpt>
      <trkpt lat="59.9743007" lon="17.734705">
        <ele>20.325</ele>
        <time>2012-02-27T17:02:30Z</time>
      </trkpt>
      <trkpt lat="59.9743251" lon="17.7349456">
        <ele>21.2864</ele>
        <time>2012-02-27T17:02:38Z</time>
      </trkpt>
      <trkpt lat="59.9743455" lon="17.735167">
        <ele>21.767</ele>
        <time>2012-02-27T17:02:46Z</time>
      </trkpt>
      <trkpt lat="59.9743827" lon="17.7354558">
        <ele>22.7283</ele>
        <time>2012-02-27T17:02:56Z</time>
      </trkpt>
      <trkpt lat="59.9744277" lon="17.7357319">
        <ele>23.209</ele>
        <time>2012-02-27T17:03:05Z</time>
      </trkpt>
      <trkpt lat="59.9744946" lon="17.7360349">
        <ele>23.6896</ele>
        <time>2012-02-27T17:03:16Z</time>
      </trkpt>
      <trkpt lat="59.9745512" lon="17.7362539">
        <ele>24.651</ele>
        <time>2012-02-27T17:03:24Z</time>
      </trkpt>
      <trkpt lat="59.9746217" lon="17.7365269">
        <ele>25.6123</ele>
        <time>2012-02-27T17:03:34Z</time>
      </trkpt>
      <trkpt lat="59.9746864" lon="17.7367409">
        <ele>26.5736</ele>
        <time>2012-02-27T17:03:42Z</time>
      </trkpt>
      <trkpt lat="59.974791" lon="17.7369957">
        <ele>28.9769</ele>
        <time>2012-02-27T17:03:52Z</time>
      </trkpt>
      <trkpt lat="59.9748861" lon="17.7371854">
        <ele>31.3801</ele>
        <time>2012-02-27T17:04:00Z</time>
      </trkpt>
      <trkpt lat="59.9749391" lon="17.7373367">
        <ele>30.4188</ele>
        <time>2012-02-27T17:04:06Z</time>
      </trkpt>
      <trkpt lat="59.9750063" lon="17.7374924">
        <ele>29.9381</ele>
        <time>2012-02-27T17:04:13Z</time>
      </trkpt>
      <trkpt lat="59.9751143" lon="17.7376801">
        <ele>29.4575</ele>
        <time>2012-02-27T17:04:23Z</time>
      </trkpt>
      <trkpt lat="59.9752103" lon="17.737864">
        <ele>28.4962</ele>
        <time>2012-02-27T17:04:32Z</time>
      </trkpt>
      <trkpt lat="59.9752409" lon="17.7379172">
        <ele>28.0155</ele>
        <time>2012-02-27T17:04:35Z</time>
      </trkpt>
      <trkpt lat="59.9753142" lon="17.7380488">
        <ele>28.4962</ele>
        <time>2012-02-27T17:04:41Z</time>
      </trkpt>
      <trkpt lat="59.9753262" lon="17.7380702">
        <ele>28.4962</ele>
        <time>2012-02-27T17:04:42Z</time>
      </trkpt>
      <trkpt lat="59.9754214" lon="17.7382654">
        <ele>28.0155</ele>
        <time>2012-02-27T17:04:51Z</time>
      </trkpt>
      <trkpt lat="59.975499" lon="17.7384012">
        <ele>28.0155</ele>
        <time>2012-02-27T17:04:58Z</time>
      </trkpt>
      <trkpt lat="59.9755919" lon="17.7385585">
        <ele>28.4962</ele>
        <time>2012-02-27T17:05:06Z</time>
      </trkpt>
      <trkpt lat="59.9756136" lon="17.7385959">
        <ele>28.0155</ele>
        <time>2012-02-27T17:05:08Z</time>
      </trkpt>
      <trkpt lat="59.9756774" lon="17.7387508">
        <ele>27.5349</ele>
        <time>2012-02-27T17:05:14Z</time>
      </trkpt>
      <trkpt lat="59.9757119" lon="17.7388102">
        <ele>27.0543</ele>
        <time>2012-02-27T17:05:17Z</time>
      </trkpt>
      <trkpt lat="59.975783" lon="17.7389156">
        <ele>28.0155</ele>
        <time>2012-02-27T17:05:23Z</time>
      </trkpt>
      <trkpt lat="59.9758218" lon="17.7389647">
        <ele>28.0155</ele>
        <time>2012-02-27T17:05:26Z</time>
      </trkpt>
      <trkpt lat="59.9758995" lon="17.7391215">
        <ele>27.0543</ele>
        <time>2012-02-27T17:05:33Z</time>
      </trkpt>
      <trkpt lat="59.9759741" lon="17.7392705">
        <ele>25.6123</ele>
        <time>2012-02-27T17:05:40Z</time>
      </trkpt>
      <trkpt lat="59.9760414" lon="17.7393997">
        <ele>25.6123</ele>
        <time>2012-02-27T17:05:46Z</time>
      </trkpt>
      <trkpt lat="59.9761164" lon="17.7395411">
        <ele>25.6123</ele>
        <time>2012-02-27T17:05:52Z</time>
      </trkpt>
      <trkpt lat="59.9761817" lon="17.7396578">
        <ele>24.651</ele>
        <time>2012-02-27T17:05:57Z</time>
      </trkpt>
      <trkpt lat="59.9762615" lon="17.7397339">
        <ele>24.1703</ele>
        <time>2012-02-27T17:06:02Z</time>
      </trkpt>
      <trkpt lat="59.9762894" lon="17.7397463">
        <ele>24.1703</ele>
        <time>2012-02-27T17:06:04Z</time>
      </trkpt>
      <trkpt lat="59.9764003" lon="17.7396719">
        <ele>24.651</ele>
        <time>2012-02-27T17:06:12Z</time>
      </trkpt>
      <trkpt lat="59.9765096" lon="17.7395178">
        <ele>27.0543</ele>
        <time>2012-02-27T17:06:20Z</time>
      </trkpt>
      <trkpt lat="59.9766165" lon="17.7394122">
        <ele>29.4575</ele>
        <time>2012-02-27T17:06:27Z</time>
      </trkpt>
      <trkpt lat="59.9767354" lon="17.739336">
        <ele>31.8607</ele>
        <time>2012-02-27T17:06:34Z</time>
      </trkpt>
      <trkpt lat="59.9768262" lon="17.7392844">
        <ele>35.2255</ele>
        <time>2012-02-27T17:06:40Z</time>
      </trkpt>
      <trkpt lat="59.9768723" lon="17.7392663">
        <ele>36.6675</ele>
        <time>2012-02-27T17:06:43Z</time>
      </trkpt>
      <trkpt lat="59.9769644" lon="17.7392304">
        <ele>38.5901</ele>
        <time>2012-02-27T17:06:49Z</time>
      </trkpt>
      <trkpt lat="59.9770743" lon="17.7391806">
        <ele>39.0707</ele>
        <time>2012-02-27T17:06:56Z</time>
      </trkpt>
      <trkpt lat="59.9770914" lon="17.7391709">
        <ele>39.0707</ele>
        <time>2012-02-27T17:06:57Z</time>
      </trkpt>
      <trkpt lat="59.9772272" lon="17.739107">
        <ele>40.0321</ele>
        <time>2012-02-27T17:07:05Z</time>
      </trkpt>
      <trkpt lat="59.9772888" lon="17.739059">
        <ele>40.0321</ele>
        <time>2012-02-27T17:07:09Z</time>
      </trkpt>
      <trkpt lat="59.9773971" lon="17.738996">
        <ele>40.0321</ele>
        <time>2012-02-27T17:07:16Z</time>
      </trkpt>
      <trkpt lat="59.9774779" lon="17.7389658">
        <ele>41.474</ele>
        <time>2012-02-27T17:07:21Z</time>
      </trkpt>
      <trkpt lat="59.9776115" lon="17.7389307">
        <ele>42.916</ele>
        <time>2012-02-27T17:07:29Z</time>
      </trkpt>
      <trkpt lat="59.9777462" lon="17.7389405">
        <ele>43.3966</ele>
        <time>2012-02-27T17:07:37Z</time>
      </trkpt>
      <trkpt lat="59.9778333" lon="17.7389575">
        <ele>40.5128</ele>
        <time>2012-02-27T17:07:43Z</time>
      </trkpt>
      <trkpt lat="59.9779145" lon="17.7389716">
        <ele>37.1481</ele>
        <time>2012-02-27T17:07:49Z</time>
      </trkpt>
      <trkpt lat="59.9779989" lon="17.7389973">
        <ele>34.2642</ele>
        <time>2012-02-27T17:07:54Z</time>
      </trkpt>
      <trkpt lat="59.978056" lon="17.7390353">
        <ele>33.3029</ele>
        <time>2012-02-27T17:07:58Z</time>
      </trkpt>
      <trkpt lat="59.9781705" lon="17.7390324">
        <ele>29.4575</ele>
        <time>2012-02-27T17:08:05Z</time>
      </trkpt>
      <trkpt lat="59.9782191" lon="17.7390342">
        <ele>28.4962</ele>
        <time>2012-02-27T17:08:08Z</time>
      </trkpt>
      <trkpt lat="59.978284" lon="17.7390887">
        <ele>25.6123</ele>
        <time>2012-02-27T17:08:14Z</time>
      </trkpt>
      <trkpt lat="59.9782994" lon="17.7390933">
        <ele>25.1317</ele>
        <time>2012-02-27T17:08:15Z</time>
      </trkpt>
      <trkpt lat="59.9783769" lon="17.7391288">
        <ele>21.767</ele>
        <time>2012-02-27T17:08:21Z</time>
      </trkpt>
      <trkpt lat="59.978388" lon="17.7391254">
        <ele>20.8057</ele>
        <time>2012-02-27T17:08:22Z</time>
      </trkpt>
      <trkpt lat="59.978449" lon="17.7391558">
        <ele>19.3638</ele>
        <time>2012-02-27T17:08:26Z</time>
      </trkpt>
      <trkpt lat="59.9785073" lon="17.7391813">
        <ele>18.8831</ele>
        <time>2012-02-27T17:08:30Z</time>
      </trkpt>
      <trkpt lat="59.9786081" lon="17.7392056">
        <ele>22.2476</ele>
        <time>2012-02-27T17:08:35Z</time>
      </trkpt>
      <trkpt lat="59.9786277" lon="17.7392054">
        <ele>21.767</ele>
        <time>2012-02-27T17:08:36Z</time>
      </trkpt>
      <trkpt lat="59.978665" lon="17.7391989">
        <ele>21.767</ele>
        <time>2012-02-27T17:08:38Z</time>
      </trkpt>
      <trkpt lat="59.9787693" lon="17.7392201">
        <ele>22.7283</ele>
        <time>2012-02-27T17:08:44Z</time>
      </trkpt>
      <trkpt lat="59.9788491" lon="17.7392469">
        <ele>23.209</ele>
        <time>2012-02-27T17:08:48Z</time>
      </trkpt>
      <trkpt lat="59.9788734" lon="17.7392782">
        <ele>22.2476</ele>
        <time>2012-02-27T17:08:51Z</time>
      </trkpt>
      <trkpt lat="59.9788957" lon="17.7392958">
        <ele>21.767</ele>
        <time>2012-02-27T17:08:53Z</time>
      </trkpt>
      <trkpt lat="59.9789497" lon="17.7394278">
        <ele>21.767</ele>
        <time>2012-02-27T17:08:58Z</time>
      </trkpt>
      <trkpt lat="59.9789734" lon="17.739474">
        <ele>22.7283</ele>
        <time>2012-02-27T17:09:00Z</time>
      </trkpt>
      <trkpt lat="59.9789863" lon="17.739649">
        <ele>27.5349</ele>
        <time>2012-02-27T17:09:05Z</time>
      </trkpt>
      <trkpt lat="59.9789778" lon="17.7397089">
        <ele>28.0155</ele>
        <time>2012-02-27T17:09:07Z</time>
      </trkpt>
      <trkpt lat="59.9789765" lon="17.7398283">
        <ele>31.3801</ele>
        <time>2012-02-27T17:09:13Z</time>
      </trkpt>
      <trkpt lat="59.9789403" lon="17.7398639">
        <ele>32.3416</ele>
        <time>2012-02-27T17:09:17Z</time>
      </trkpt>
    </trkseg>
  </trk>
</gpx>